Time;durP1;ratioP1;P1;durP2;ratioP2;P2;SDS_P1;SDS_P2;PMS_P1;PMS_P2;Temp;Humidity;BMP_temperature;BMP_pressure;BME280_temperature;BME280_humidity;BME280_pressure;Samples;Min_cycle;Max_cycle;Signal;HPM_P1;HPM_P2
2022/07/05 00:00:11;;;;;;;0.20;0.20;;;11.10;99.90;;;;;;5041421;28;20057;-83
2022/07/05 00:02:37;;;;;;;0.00;0.00;;;11.00;99.90;;;;;;5057417;28;20123;-84
2022/07/05 00:05:03;;;;;;;0.17;0.17;;;11.00;99.90;;;;;;5073359;28;20126;-83
2022/07/05 00:07:29;;;;;;;0.10;0.10;;;11.00;99.90;;;;;;5076687;28;20040;-83
2022/07/05 00:09:57;;;;;;;0.10;0.10;;;11.00;99.90;;;;;;5060601;28;20043;-84
2022/07/05 00:12:32;;;;;;;0.00;0.00;;;10.90;99.90;;;;;;5076939;28;20075;-84
2022/07/05 00:14:59;;;;;;;0.00;0.00;;;10.80;99.90;;;;;;5077087;28;20036;-84
2022/07/05 00:17:25;;;;;;;0.10;0.10;;;10.90;99.90;;;;;;5059880;28;20040;-82
2022/07/05 00:19:51;;;;;;;0.10;0.10;;;10.90;99.90;;;;;;5076256;28;20048;-82
2022/07/05 00:22:17;;;;;;;0.00;0.00;;;10.90;99.90;;;;;;5059910;28;20031;-82
2022/07/05 00:24:42;;;;;;;0.00;0.00;;;10.90;99.90;;;;;;5059423;28;20051;-82
2022/07/05 00:27:08;;;;;;;0.00;0.00;;;10.90;99.90;;;;;;5059321;28;20032;-82
2022/07/05 00:29:34;;;;;;;0.25;0.25;;;11.00;99.90;;;;;;5058425;28;20486;-82
2022/07/05 00:32:00;;;;;;;0.10;0.10;;;11.00;99.90;;;;;;5075555;28;20043;-82
2022/07/05 00:34:25;;;;;;;0.43;0.43;;;11.00;99.90;;;;;;5076708;28;20044;-83
2022/07/05 00:36:51;;;;;;;0.00;0.00;;;11.00;99.90;;;;;;5059547;28;20104;-83
2022/07/05 00:39:17;;;;;;;0.00;0.00;;;11.00;99.90;;;;;;5076714;28;20084;-84
2022/07/05 00:41:43;;;;;;;0.10;0.10;;;11.00;99.90;;;;;;5060644;28;20043;-83
2022/07/05 00:44:10;;;;;;;0.30;0.30;;;11.00;99.90;;;;;;5075348;28;20442;-83
2022/07/05 00:46:38;;;;;;;1.05;1.05;;;10.90;99.90;;;;;;5076225;28;20378;-84
2022/07/05 00:49:05;;;;;;;0.13;0.13;;;10.90;99.90;;;;;;5075863;28;20032;-84
2022/07/05 00:51:36;;;;;;;0.10;0.10;;;10.90;99.90;;;;;;5059836;28;20036;-82
2022/07/05 00:54:05;;;;;;;0.10;0.10;;;10.80;99.90;;;;;;5076559;28;20131;-82
2022/07/05 00:56:30;;;;;;;0.20;0.20;;;10.80;99.90;;;;;;5076446;28;20478;-82
2022/07/05 00:58:56;;;;;;;0.10;0.10;;;10.80;99.90;;;;;;5075837;28;20040;-82
2022/07/05 01:01:21;;;;;;;0.00;0.00;;;10.80;99.90;;;;;;5076591;28;20040;-82
2022/07/05 01:03:47;;;;;;;0.08;0.08;;;10.70;99.90;;;;;;5076408;28;20121;-82
2022/07/05 01:06:14;;;;;;;0.10;0.10;;;10.70;99.90;;;;;;5076306;28;20093;-82
2022/07/05 01:08:41;;;;;;;0.20;0.20;;;10.70;99.90;;;;;;5075772;28;20036;-82
2022/07/05 01:11:09;;;;;;;0.03;0.03;;;10.70;99.90;;;;;;5059250;28;20097;-82
2022/07/05 01:13:36;;;;;;;0.10;0.10;;;10.70;99.90;;;;;;5076002;28;20040;-82
2022/07/05 01:16:03;;;;;;;0.10;0.10;;;10.70;99.90;;;;;;5076011;28;20122;-82
2022/07/05 01:18:29;;;;;;;0.10;0.10;;;10.70;99.90;;;;;;5058901;28;20079;-82
2022/07/05 01:20:56;;;;;;;0.00;0.00;;;10.60;99.90;;;;;;5075796;28;20396;-81
2022/07/05 01:23:25;;;;;;;0.10;0.10;;;10.60;99.90;;;;;;5042821;28;20485;-81
2022/07/05 01:25:52;;;;;;;0.08;0.08;;;10.60;99.90;;;;;;5059148;28;20051;-82
2022/07/05 01:28:18;;;;;;;0.22;0.22;;;10.60;99.90;;;;;;5058996;28;20051;-82
2022/07/05 01:30:44;;;;;;;0.00;0.00;;;10.80;99.90;;;;;;5059046;28;20035;-82
2022/07/05 01:33:10;;;;;;;0.32;0.32;;;10.50;99.90;;;;;;5075241;28;20066;-81
2022/07/05 01:35:36;;;;;;;0.10;0.10;;;10.50;99.90;;;;;;5059290;28;20078;-81
2022/07/05 01:38:03;;;;;;;0.80;0.55;;;10.50;99.90;;;;;;5058986;28;20044;-81
2022/07/05 01:40:28;;;;;;;0.55;0.55;;;10.50;99.90;;;;;;5076044;28;20541;-84
2022/07/05 01:42:54;;;;;;;0.10;0.10;;;10.60;99.90;;;;;;5038495;28;20172;-84
2022/07/05 01:48:08;;;;;;;0.10;0.10;;;10.40;99.90;;;;;;5079653;28;20051;-84
2022/07/05 01:50:51;;;;;;;0.10;0.10;;;10.40;99.90;;;;;;5063307;28;20036;-84
2022/07/05 01:53:22;;;;;;;0.10;0.10;;;10.40;99.90;;;;;;5079237;28;20107;-84
2022/07/05 01:55:49;;;;;;;0.75;0.40;;;10.40;99.90;;;;;;5062746;28;20048;-84
2022/07/05 01:58:15;;;;;;;0.10;0.10;;;10.30;99.90;;;;;;5062977;28;20409;-82
2022/07/05 02:00:50;;;;;;;0.30;0.30;;;10.40;99.90;;;;;;5079596;28;20043;-82
2022/07/05 02:03:16;;;;;;;0.10;0.10;;;10.40;99.90;;;;;;5078809;28;20170;-81
2022/07/05 02:05:43;;;;;;;0.65;0.10;;;10.40;99.90;;;;;;5046018;28;20036;-81
2022/07/05 02:08:09;;;;;;;0.00;0.00;;;10.40;99.90;;;;;;5078971;28;20039;-81
2022/07/05 02:10:37;;;;;;;0.10;0.10;;;10.30;99.90;;;;;;5046069;28;20032;-81
2022/07/05 02:13:03;;;;;;;0.00;0.00;;;10.30;99.90;;;;;;5063236;28;20058;-83
2022/07/05 02:15:34;;;;;;;0.20;0.20;;;10.30;99.90;;;;;;5078590;28;20505;-84
2022/07/05 02:18:01;;;;;;;0.20;0.20;;;10.20;99.90;;;;;;5062703;28;20044;-84
2022/07/05 02:20:28;;;;;;;0.10;0.10;;;10.20;99.90;;;;;;5078428;28;20491;-84
2022/07/05 02:22:54;;;;;;;0.28;0.15;;;10.20;99.90;;;;;;5079671;28;20044;-84
2022/07/05 02:25:20;;;;;;;0.00;0.00;;;10.20;99.90;;;;;;5076076;28;20036;-82
2022/07/05 02:27:46;;;;;;;0.00;0.00;;;10.20;99.90;;;;;;5062367;28;20036;-82
2022/07/05 02:30:13;;;;;;;0.30;0.30;;;10.10;99.90;;;;;;5062510;28;20105;-84
2022/07/05 02:32:41;;;;;;;0.10;0.10;;;10.10;99.90;;;;;;5070543;28;20425;-84
2022/07/05 02:35:09;;;;;;;0.17;0.17;;;10.00;99.90;;;;;;5059107;28;20127;-84
2022/07/05 02:37:35;;;;;;;0.00;0.00;;;10.10;99.90;;;;;;5059045;28;20051;-84
2022/07/05 02:40:01;;;;;;;4.50;0.68;;;10.10;99.90;;;;;;5058490;28;20499;-84
2022/07/05 02:42:26;;;;;;;0.30;0.20;;;10.10;99.90;;;;;;5058964;28;20045;-85
2022/07/05 02:44:52;;;;;;;0.10;0.10;;;10.10;99.90;;;;;;5047376;28;20123;-85
2022/07/05 02:47:18;;;;;;;0.10;0.10;;;10.10;99.90;;;;;;5061592;28;20477;-85
2022/07/05 02:49:44;;;;;;;0.10;0.10;;;10.10;99.90;;;;;;5078571;28;20047;-85
2022/07/05 02:52:09;;;;;;;0.00;0.00;;;10.10;99.90;;;;;;5078955;28;20039;-84
2022/07/05 02:54:35;;;;;;;0.70;0.35;;;10.50;99.90;;;;;;5078363;28;20040;-85
2022/07/05 02:57:01;;;;;;;0.08;0.08;;;10.10;99.90;;;;;;5078399;28;20386;-85
2022/07/05 02:59:27;;;;;;;0.17;0.17;;;10.10;99.90;;;;;;5061432;28;20123;-85
2022/07/05 03:01:53;;;;;;;0.10;0.10;;;10.10;99.90;;;;;;5061783;28;20036;-85
2022/07/05 03:04:19;;;;;;;0.10;0.10;;;10.10;99.90;;;;;;5078078;28;20505;-85
2022/07/05 03:06:45;;;;;;;0.10;0.10;;;10.30;99.90;;;;;;5061096;28;20428;-85
2022/07/05 03:09:10;;;;;;;0.10;0.10;;;10.10;99.90;;;;;;5061266;28;20036;-85
2022/07/05 03:11:36;;;;;;;0.10;0.10;;;10.10;99.90;;;;;;5061638;28;20051;-85
2022/07/05 03:14:02;;;;;;;0.10;0.10;;;10.10;99.90;;;;;;5078060;28;20543;-85
2022/07/05 03:16:29;;;;;;;0.10;0.10;;;10.30;99.90;;;;;;5077774;28;20478;-85
2022/07/05 03:18:55;;;;;;;0.10;0.10;;;10.20;99.90;;;;;;5044581;28;20097;-85
2022/07/05 03:21:21;;;;;;;1.48;0.45;;;10.30;99.90;;;;;;5061216;28;20127;-85
2022/07/05 03:23:46;;;;;;;0.20;0.20;;;10.30;99.90;;;;;;5077963;28;20071;-85
2022/07/05 03:26:12;;;;;;;0.17;0.17;;;10.40;99.90;;;;;;5077683;28;20071;-84
2022/07/05 03:28:38;;;;;;;0.17;0.17;;;10.50;99.90;;;;;;5077303;28;20048;-85
2022/07/05 03:31:03;;;;;;;0.10;0.10;;;10.60;99.90;;;;;;5044401;28;20036;-85
2022/07/05 03:33:29;;;;;;;0.00;0.00;;;10.60;99.90;;;;;;5077510;28;20048;-85
2022/07/05 03:35:55;;;;;;;0.38;0.32;;;11.10;99.90;;;;;;5060762;28;20044;-85
2022/07/05 03:38:21;;;;;;;0.25;0.25;;;10.80;99.90;;;;;;5077530;28;20044;-85
2022/07/05 03:40:47;;;;;;;0.22;0.17;;;10.90;99.90;;;;;;5051415;28;20040;-85
2022/07/05 03:43:12;;;;;;;0.20;0.20;;;10.90;99.90;;;;;;5045586;22;20040;-82
2022/07/05 03:45:38;;;;;;;0.00;0.00;;;11.00;99.90;;;;;;5071997;28;20045;-82
2022/07/05 03:48:04;;;;;;;0.40;0.40;;;11.20;99.90;;;;;;5074423;28;20043;-82
2022/07/05 03:50:30;;;;;;;0.10;0.10;;;11.10;99.90;;;;;;5074420;28;20079;-82
2022/07/05 03:52:56;;;;;;;0.13;0.13;;;11.20;99.90;;;;;;5073960;28;20121;-82
2022/07/05 03:55:22;;;;;;;0.20;0.20;;;11.20;99.90;;;;;;5073153;28;20041;-81
2022/07/05 03:57:47;;;;;;;0.20;0.20;;;11.20;99.90;;;;;;5057368;28;20040;-81
2022/07/05 04:00:14;;;;;;;0.10;0.10;;;11.30;99.90;;;;;;5074027;28;20044;-81
2022/07/05 04:02:39;;;;;;;0.00;0.00;;;11.30;99.90;;;;;;5057189;28;20036;-81
2022/07/05 04:05:06;;;;;;;0.10;0.10;;;11.40;99.90;;;;;;5073420;28;20037;-81
2022/07/05 04:07:32;;;;;;;0.10;0.10;;;11.40;99.90;;;;;;5056504;28;20083;-81
2022/07/05 04:09:58;;;;;;;0.00;0.00;;;11.50;99.90;;;;;;5056988;28;20469;-82
2022/07/05 04:12:24;;;;;;;0.08;0.08;;;11.50;99.90;;;;;;5074058;28;20044;-82
2022/07/05 04:14:49;;;;;;;0.08;0.08;;;11.90;99.90;;;;;;5039962;28;20490;-82
2022/07/05 04:17:15;;;;;;;0.00;0.00;;;11.50;99.90;;;;;;5039206;28;20156;-82
2022/07/05 04:19:41;;;;;;;0.17;0.17;;;11.40;99.90;;;;;;5073536;28;20437;-82
2022/07/05 04:22:06;;;;;;;0.00;0.00;;;11.40;99.90;;;;;;5056885;28;20044;-82
2022/07/05 04:25:16;;;;;;;0.13;0.13;;;11.30;99.90;;;;;;5073531;28;20101;-82
2022/07/05 04:27:18;;;;;;;0.20;0.20;;;11.40;99.90;;;;;;5072559;28;20497;-85
2022/07/05 04:29:44;;;;;;;0.22;0.22;;;11.30;99.90;;;;;;5073347;28;20044;-85
2022/07/05 04:32:09;;;;;;;2.65;1.30;;;11.30;99.90;;;;;;5073021;28;20534;-85
2022/07/05 04:34:35;;;;;;;0.00;0.00;;;11.30;99.90;;;;;;5056404;28;20065;-85
2022/07/05 04:37:00;;;;;;;0.00;0.00;;;11.30;99.90;;;;;;5056057;28;20033;-85
2022/07/05 04:39:26;;;;;;;0.00;0.00;;;11.40;99.90;;;;;;5072912;28;20032;-85
2022/07/05 04:41:52;;;;;;;0.13;0.13;;;11.60;99.90;;;;;;5056267;28;20040;-85
2022/07/05 04:44:17;;;;;;;0.45;0.38;;;11.70;99.90;;;;;;5056134;28;20052;-85
2022/07/05 04:46:43;;;;;;;0.10;0.10;;;11.80;99.90;;;;;;5054883;28;20110;-84
2022/07/05 04:49:09;;;;;;;0.13;0.13;;;12.00;99.90;;;;;;5056242;28;20127;-85
2022/07/05 04:51:34;;;;;;;0.00;0.00;;;12.10;99.90;;;;;;5073359;28;20049;-85
2022/07/05 04:54:00;;;;;;;0.03;0.03;;;12.20;99.90;;;;;;5056115;28;20044;-85
2022/07/05 04:56:26;;;;;;;0.10;0.10;;;12.30;99.90;;;;;;5072524;28;20040;-84
2022/07/05 04:58:51;;;;;;;0.05;0.05;;;12.40;99.90;;;;;;5072135;28;20102;-84
2022/07/05 05:01:17;;;;;;;0.00;0.00;;;12.60;99.90;;;;;;5045312;28;20041;-81
2022/07/05 05:03:43;;;;;;;0.30;0.28;;;12.70;99.90;;;;;;5055552;28;20379;-82
2022/07/05 05:06:08;;;;;;;0.25;0.20;;;13.00;99.90;;;;;;5071489;28;20047;-81
2022/07/05 05:08:34;;;;;;;0.30;0.30;;;13.00;99.90;;;;;;5055042;28;20047;-82
2022/07/05 05:11:00;;;;;;;0.25;0.25;;;13.20;99.90;;;;;;5071966;28;20044;-82
2022/07/05 05:13:25;;;;;;;0.00;0.00;;;13.30;99.90;;;;;;5050314;28;20037;-81
2022/07/05 05:15:51;;;;;;;0.30;0.28;;;13.40;99.90;;;;;;5052338;28;20135;-81
2022/07/05 05:18:18;;;;;;;0.10;0.10;;;13.70;99.90;;;;;;5062523;28;20052;-81
2022/07/05 05:20:44;;;;;;;0.35;0.28;;;14.10;99.90;;;;;;5072039;28;20044;-81
2022/07/05 05:23:10;;;;;;;0.10;0.10;;;14.10;99.90;;;;;;5072836;28;20042;-81
2022/07/05 05:25:36;;;;;;;0.17;0.17;;;14.30;99.90;;;;;;5072326;28;20040;-81
2022/07/05 05:28:02;;;;;;;0.00;0.00;;;14.40;99.90;;;;;;5072953;28;20447;-81
2022/07/05 05:30:28;;;;;;;0.00;0.00;;;14.90;99.90;;;;;;5071756;28;20036;-81
2022/07/05 05:32:53;;;;;;;0.10;0.10;;;17.10;99.90;;;;;;5055561;28;20047;-85
2022/07/05 05:35:21;;;;;;;0.30;0.30;;;18.40;99.90;;;;;;5072422;28;20468;-84
2022/07/05 05:37:52;;;;;;;0.17;0.17;;;19.60;99.90;;;;;;5055680;28;20041;-84
2022/07/05 05:40:19;;;;;;;0.00;0.00;;;20.70;99.90;;;;;;5071785;28;20123;-84
2022/07/05 05:42:45;;;;;;;0.20;0.20;;;21.20;99.90;;;;;;5055442;28;20055;-84
2022/07/05 05:45:11;;;;;;;0.10;0.10;;;22.00;99.90;;;;;;5070988;28;20049;-85
2022/07/05 05:47:44;;;;;;;0.20;0.20;;;23.00;99.90;;;;;;5055260;28;20090;-84
2022/07/05 05:50:10;;;;;;;0.10;0.10;;;23.10;99.90;;;;;;5071880;28;20090;-82
2022/07/05 05:52:35;;;;;;;0.10;0.10;;;23.30;99.90;;;;;;5072102;28;20428;-82
2022/07/05 05:55:01;;;;;;;0.10;0.10;;;23.50;99.90;;;;;;5072127;28;20127;-82
2022/07/05 05:57:27;;;;;;;0.55;0.50;;;23.50;99.90;;;;;;5071869;28;20043;-82
2022/07/05 05:59:52;;;;;;;0.10;0.10;;;23.70;98.70;;;;;;5072418;28;20048;-82
2022/07/05 06:02:18;;;;;;;0.00;0.00;;;24.40;99.80;;;;;;5035216;28;20358;-82
2022/07/05 06:04:44;;;;;;;0.00;0.00;;;24.50;98.50;;;;;;5034983;28;20045;-82
2022/07/05 06:07:09;;;;;;;0.10;0.10;;;25.40;99.50;;;;;;5035843;28;20478;-85
2022/07/05 06:09:35;;;;;;;0.25;0.25;;;25.60;96.90;;;;;;5037417;28;20040;-85
2022/07/05 06:12:01;;;;;;;0.10;0.10;;;25.70;94.10;;;;;;5071459;28;20123;-85
2022/07/05 06:14:26;;;;;;;0.30;0.30;;;25.70;94.80;;;;;;5071791;28;20367;-86
2022/07/05 06:16:52;;;;;;;0.82;0.40;;;25.80;95.40;;;;;;5058104;28;20073;-85
2022/07/05 06:19:18;;;;;;;0.30;0.30;;;26.20;96.40;;;;;;5054930;28;20036;-86
2022/07/05 06:21:43;;;;;;;0.10;0.10;;;26.40;94.30;;;;;;5070354;28;20094;-85
2022/07/05 06:24:09;;;;;;;0.10;0.10;;;26.70;93.50;;;;;;5054608;28;20040;-86
2022/07/05 06:26:34;;;;;;;0.15;0.15;;;26.70;93.40;;;;;;5071649;28;20127;-86
2022/07/05 06:29:00;;;;;;;0.10;0.10;;;26.90;94.70;;;;;;5053841;28;20430;-85
2022/07/05 06:31:26;;;;;;;0.10;0.10;;;27.00;93.10;;;;;;5073962;28;20036;-85
2022/07/05 06:33:51;;;;;;;0.10;0.10;;;26.70;92.10;;;;;;5074918;28;20114;-86
2022/07/05 06:36:17;;;;;;;0.20;0.20;;;27.00;91.30;;;;;;5050536;28;20040;-85
2022/07/05 06:38:43;;;;;;;0.10;0.10;;;27.00;92.10;;;;;;5058813;28;20040;-86
2022/07/05 06:41:08;;;;;;;0.10;0.10;;;27.10;91.90;;;;;;5053109;28;20047;-83
2022/07/05 06:43:34;;;;;;;0.15;0.15;;;27.20;90.70;;;;;;5041130;28;20056;-82
2022/07/05 06:46:00;;;;;;;0.10;0.10;;;27.30;88.60;;;;;;5052221;28;20119;-82
2022/07/05 06:48:25;;;;;;;1.88;0.20;;;27.60;90.50;;;;;;5032628;28;20133;-82
2022/07/05 06:50:51;;;;;;;1.00;0.20;;;27.70;90.00;;;;;;5053497;28;20052;-82
2022/07/05 06:53:17;;;;;;;0.00;0.00;;;28.10;85.10;;;;;;5024878;28;20039;-82
2022/07/05 06:55:45;;;;;;;0.10;0.10;;;28.20;88.90;;;;;;5025735;28;20044;-83
2022/07/05 06:58:11;;;;;;;0.10;0.10;;;28.20;84.90;;;;;;5052813;28;20044;-86
2022/07/05 07:00:39;;;;;;;0.00;0.00;;;28.40;86.10;;;;;;5041928;28;20144;-86
2022/07/05 07:03:04;;;;;;;0.13;0.13;;;28.60;83.60;;;;;;5074820;28;20072;-87
2022/07/05 07:05:30;;;;;;;0.10;0.10;;;28.70;81.80;;;;;;5058237;28;20072;-86
2022/07/05 07:10:40;;;;;;;0.20;0.20;;;28.80;79.20;;;;;;5072751;28;20119;-86
2022/07/05 07:13:06;;;;;;;1.08;0.65;;;28.80;82.00;;;;;;5052584;28;20114;-86
2022/07/05 07:15:33;;;;;;;0.10;0.10;;;29.00;79.60;;;;;;5046743;28;20482;-86
2022/07/05 07:17:59;;;;;;;0.20;0.20;;;28.80;78.10;;;;;;5010110;28;20050;-86
2022/07/05 07:20:25;;;;;;;0.10;0.10;;;28.70;77.50;;;;;;5054494;28;20045;-86
2022/07/05 07:22:51;;;;;;;0.10;0.10;;;27.90;79.00;;;;;;5058159;28;20131;-87
2022/07/05 07:25:20;;;;;;;0.00;0.00;;;28.00;78.50;;;;;;5057703;28;20048;-86
2022/07/05 07:27:47;;;;;;;0.10;0.10;;;27.20;79.60;;;;;;5074599;28;20059;-86
2022/07/05 07:30:16;;;;;;;0.17;0.17;;;26.60;80.00;;;;;;5074353;28;20040;-83
2022/07/05 07:32:42;;;;;;;0.00;0.00;;;27.00;81.80;;;;;;5057728;28;20098;-82
2022/07/05 07:35:09;;;;;;;0.32;0.20;;;27.70;81.00;;;;;;5057573;28;20047;-82
2022/07/05 07:37:35;;;;;;;0.10;0.10;;;28.10;76.90;;;;;;5073895;28;20051;-83
2022/07/05 07:40:01;;;;;;;0.45;0.40;;;28.40;77.10;;;;;;5049643;28;20033;-83
2022/07/05 07:42:28;;;;;;;0.70;0.40;;;28.70;76.80;;;;;;5064755;28;20036;-83
2022/07/05 07:44:53;;;;;;;0.20;0.15;;;29.00;75.40;;;;;;5056693;28;20088;-83
2022/07/05 07:47:19;;;;;;;0.10;0.10;;;29.30;77.10;;;;;;5054278;28;20076;-83
2022/07/05 07:49:45;;;;;;;0.00;0.00;;;29.70;75.60;;;;;;5067172;28;20048;-83
2022/07/05 07:52:11;;;;;;;0.20;0.20;;;29.80;72.80;;;;;;5054682;28;20029;-83
2022/07/05 07:54:36;;;;;;;0.00;0.00;;;29.70;73.60;;;;;;5072347;28;20498;-83
2022/07/05 07:57:04;;;;;;;0.10;0.10;;;29.70;73.40;;;;;;5072697;28;20474;-83
2022/07/05 07:59:31;;;;;;;0.20;0.20;;;30.00;74.20;;;;;;5073766;28;20037;-83
2022/07/05 08:01:57;;;;;;;0.10;0.10;;;30.20;74.00;;;;;;5073846;28;20054;-83
2022/07/05 08:04:22;;;;;;;0.10;0.10;;;30.30;72.70;;;;;;5074124;28;20150;-83
2022/07/05 08:06:48;;;;;;;0.10;0.10;;;30.50;70.70;;;;;;5073885;28;20463;-83
2022/07/05 08:09:14;;;;;;;0.10;0.10;;;30.40;71.90;;;;;;5054142;28;20481;-83
2022/07/05 08:11:40;;;;;;;0.00;0.00;;;30.70;70.90;;;;;;5047947;28;20067;-83
2022/07/05 08:14:06;;;;;;;0.20;0.20;;;30.90;71.30;;;;;;5047409;28;20115;-83
2022/07/05 08:16:32;;;;;;;0.38;0.38;;;31.40;70.00;;;;;;5056587;28;20051;-83
2022/07/05 08:21:43;;;;;;;0.10;0.10;;;31.00;70.40;;;;;;5073127;28;20498;-83
2022/07/05 08:24:11;;;;;;;0.00;0.00;;;30.80;70.50;;;;;;5056906;28;20041;-83
2022/07/05 08:26:38;;;;;;;0.10;0.10;;;29.80;71.30;;;;;;5040690;28;20040;-83
2022/07/05 08:29:07;;;;;;;2.42;0.55;;;28.60;71.80;;;;;;5056418;28;20165;-83
2022/07/05 08:31:37;;;;;;;0.10;0.10;;;28.60;73.10;;;;;;5073524;28;20428;-83
2022/07/05 08:34:03;;;;;;;1.75;0.30;;;29.00;72.90;;;;;;5073201;28;20040;-83
2022/07/05 08:36:30;;;;;;;0.22;0.22;;;29.80;73.20;;;;;;5069838;28;20040;-83
2022/07/05 08:38:55;;;;;;;0.10;0.10;;;30.30;71.20;;;;;;5045889;28;20040;-83
2022/07/05 08:41:22;;;;;;;0.10;0.10;;;29.30;69.30;;;;;;5055285;28;20056;-83
2022/07/05 08:43:51;;;;;;;0.00;0.00;;;29.40;71.50;;;;;;5049916;28;20068;-83
2022/07/05 08:46:18;;;;;;;0.00;0.00;;;28.00;70.10;;;;;;5063144;28;20507;-83
2022/07/05 08:48:49;;;;;;;0.08;0.08;;;25.60;73.40;;;;;;5052828;28;20033;-83
2022/07/05 08:51:21;;;;;;;0.05;0.05;;;24.70;74.50;;;;;;5036536;28;20051;-83
2022/07/05 08:53:49;;;;;;;2.08;0.20;;;24.30;75.60;;;;;;5070349;28;20390;-83
2022/07/05 08:56:15;;;;;;;1.95;0.70;;;23.60;78.40;;;;;;5073548;28;20044;-83
2022/07/05 08:58:42;;;;;;;0.05;0.05;;;24.70;80.30;;;;;;5073767;28;20036;-83
2022/07/05 09:01:09;;;;;;;0.15;0.15;;;26.00;79.00;;;;;;5072777;28;20040;-83
2022/07/05 09:03:46;;;;;;;0.17;0.17;;;27.90;76.30;;;;;;5071457;28;20050;-83
2022/07/05 09:06:24;;;;;;;0.00;0.00;;;29.50;73.20;;;;;;5064154;28;20060;-83
2022/07/05 09:08:54;;;;;;;0.10;0.10;;;29.20;71.30;;;;;;5069769;28;20044;-83
2022/07/05 09:11:24;;;;;;;0.10;0.10;;;29.60;71.60;;;;;;5072339;28;20067;-83
2022/07/05 09:13:50;;;;;;;0.15;0.15;;;29.30;72.70;;;;;;5072512;28;20036;-83
2022/07/05 09:16:16;;;;;;;0.20;0.20;;;28.10;71.90;;;;;;5049936;28;20045;-84
2022/07/05 09:18:43;;;;;;;0.10;0.10;;;27.90;74.00;;;;;;5056351;28;20498;-83
2022/07/05 09:21:16;;;;;;;0.30;0.30;;;28.60;73.80;;;;;;5065773;28;20045;-83
2022/07/05 09:23:43;;;;;;;0.82;0.20;;;29.30;72.50;;;;;;5056876;28;20047;-83
2022/07/05 09:26:09;;;;;;;0.50;0.10;;;29.20;72.50;;;;;;5065639;28;20539;-86
2022/07/05 09:28:35;;;;;;;0.10;0.10;;;28.00;72.30;;;;;;5003299;28;20451;-87
2022/07/05 09:31:02;;;;;;;0.00;0.00;;;27.10;73.00;;;;;;5035591;28;20078;-86
2022/07/05 09:33:27;;;;;;;0.10;0.10;;;27.50;73.80;;;;;;5052136;28;20041;-87
2022/07/05 09:35:57;;;;;;;0.10;0.10;;;28.80;73.00;;;;;;5068941;28;20047;-86
2022/07/05 09:38:26;;;;;;;0.10;0.10;;;28.70;71.30;;;;;;5071817;28;20048;-86
2022/07/05 09:41:00;;;;;;;0.10;0.10;;;27.40;70.50;;;;;;5071848;28;20059;-87
2022/07/05 09:43:27;;;;;;;0.68;0.68;;;26.30;73.90;;;;;;5071776;28;20052;-85
2022/07/05 09:45:57;;;;;;;0.10;0.10;;;25.20;75.00;;;;;;5055305;28;20124;-86
2022/07/05 09:48:23;;;;;;;0.10;0.10;;;25.50;74.90;;;;;;5071978;28;20040;-87
2022/07/05 09:50:52;;;;;;;0.20;0.20;;;26.70;74.80;;;;;;5071932;28;20040;-87
2022/07/05 09:53:19;;;;;;;0.15;0.15;;;28.40;72.80;;;;;;5071877;28;20098;-87
2022/07/05 09:56:03;;;;;;;0.10;0.10;;;28.50;72.80;;;;;;5072012;28;20421;-87
2022/07/05 09:58:30;;;;;;;0.10;0.10;;;29.90;70.50;;;;;;5055259;28;20509;-87
2022/07/05 10:00:56;;;;;;;0.00;0.00;;;29.70;69.20;;;;;;5055301;28;20055;-83
2022/07/05 10:03:21;;;;;;;0.70;0.43;;;28.80;68.40;;;;;;5065837;28;20067;-84
2022/07/05 10:05:47;;;;;;;0.00;0.00;;;27.30;68.90;;;;;;5068800;28;20033;-83
2022/07/05 10:08:13;;;;;;;0.10;0.10;;;26.60;70.90;;;;;;5061271;28;20041;-83
2022/07/05 10:10:43;;;;;;;0.10;0.10;;;25.70;72.00;;;;;;5056390;28;20037;-83
2022/07/05 10:13:09;;;;;;;0.00;0.00;;;25.00;74.20;;;;;;5047434;28;20064;-83
2022/07/05 10:15:35;;;;;;;0.00;0.00;;;24.30;74.80;;;;;;5054000;28;20513;-83
2022/07/05 10:18:10;;;;;;;0.22;0.22;;;23.70;75.80;;;;;;5069715;28;20383;-87
2022/07/05 10:20:46;;;;;;;0.35;0.28;;;24.50;78.00;;;;;;5075424;28;20055;-87
2022/07/05 10:23:17;;;;;;;0.10;0.10;;;25.10;78.20;;;;;;5075309;28;20060;-87
2022/07/05 10:25:48;;;;;;;0.10;0.10;;;25.40;77.20;;;;;;5059082;28;20041;-87
2022/07/05 10:28:15;;;;;;;0.20;0.20;;;25.50;75.40;;;;;;5097256;22;20044;-84
2022/07/05 10:30:41;;;;;;;0.08;0.08;;;25.10;77.10;;;;;;5075755;28;20080;-83
2022/07/05 10:33:08;;;;;;;0.20;0.20;;;24.70;77.50;;;;;;5042062;28;20041;-83
2022/07/05 10:35:34;;;;;;;0.20;0.20;;;25.20;77.60;;;;;;5050735;28;20044;-83
2022/07/05 10:38:02;;;;;;;0.00;0.00;;;26.70;75.90;;;;;;5032350;28;20384;-84
2022/07/05 10:40:30;;;;;;;0.65;0.65;;;27.80;72.40;;;;;;5022282;28;20077;-83
2022/07/05 10:42:58;;;;;;;0.10;0.10;;;27.70;72.60;;;;;;5038943;28;20040;-84
2022/07/05 10:45:34;;;;;;;0.45;0.40;;;27.60;73.10;;;;;;5042651;28;20049;-84
2022/07/05 10:48:12;;;;;;;0.10;0.10;;;27.90;73.70;;;;;;5056802;28;20044;-84
2022/07/05 10:50:55;;;;;;;0.13;0.13;;;28.80;73.60;;;;;;5055261;28;20068;-87
2022/07/05 10:53:26;;;;;;;0.10;0.10;;;29.60;72.80;;;;;;5037781;28;20044;-87
2022/07/05 10:56:02;;;;;;;0.10;0.10;;;30.10;71.10;;;;;;5038876;28;20136;-86
2022/07/05 10:58:42;;;;;;;0.05;0.05;;;30.20;70.80;;;;;;5028290;28;20479;-87
2022/07/05 11:01:20;;;;;;;0.10;0.10;;;30.50;68.60;;;;;;5038150;28;20127;-86
2022/07/05 11:04:00;;;;;;;0.15;0.15;;;30.60;68.30;;;;;;5038144;28;20132;-87
2022/07/05 11:06:31;;;;;;;0.10;0.10;;;30.80;67.60;;;;;;5037988;28;20033;-86
2022/07/05 11:08:57;;;;;;;0.10;0.10;;;31.20;68.20;;;;;;5041760;28;20037;-86
2022/07/05 11:11:31;;;;;;;0.10;0.10;;;30.70;66.10;;;;;;5050302;28;20059;-86
2022/07/05 11:13:58;;;;;;;0.08;0.08;;;29.50;67.80;;;;;;5057826;28;20090;-86
2022/07/05 11:16:30;;;;;;;0.00;0.00;;;28.10;68.50;;;;;;5040888;28;20040;-86
2022/07/05 11:19:05;;;;;;;0.10;0.10;;;28.10;70.80;;;;;;5039587;28;20036;-86
2022/07/05 11:21:32;;;;;;;0.10;0.10;;;29.00;69.40;;;;;;5057627;28;20048;-86
2022/07/05 11:24:24;;;;;;;0.10;0.10;;;29.90;65.80;;;;;;5057590;28;20485;-83
2022/07/05 11:26:54;;;;;;;0.00;0.00;;;29.50;64.90;;;;;;5057670;28;20094;-83
2022/07/05 11:29:42;;;;;;;0.10;0.10;;;28.10;69.70;;;;;;5011302;28;20085;-83
2022/07/05 11:32:15;;;;;;;0.10;0.10;;;24.90;74.00;;;;;;5014246;28;20532;-83
2022/07/05 11:34:49;;;;;;;0.17;0.17;;;23.80;76.40;;;;;;5008559;28;20045;-83
2022/07/05 11:37:23;;;;;;;0.28;0.22;;;22.60;79.30;;;;;;5016856;28;20049;-83
2022/07/05 11:40:09;;;;;;;0.00;0.00;;;22.20;80.10;;;;;;5024318;28;20030;-83
2022/07/05 11:42:37;;;;;;;;;;;21.30;82.10;;;;;;5007909;28;20050;-83
2022/07/05 11:45:05;;;;;;;1.98;1.30;;;21.10;83.60;;;;;;5016534;28;20003;-83
2022/07/05 11:47:31;;;;;;;0.20;0.20;;;21.10;85.20;;;;;;5033868;28;20124;-83
2022/07/05 11:49:58;;;;;;;0.10;0.10;;;21.10;84.50;;;;;;5031977;28;20045;-83
2022/07/05 11:52:29;;;;;;;0.28;0.25;;;21.30;84.90;;;;;;5028799;28;20388;-83
2022/07/05 11:54:56;;;;;;;0.10;0.10;;;21.60;84.80;;;;;;5033363;28;20065;-83
2022/07/05 11:57:23;;;;;;;0.05;0.05;;;21.80;84.10;;;;;;5034511;28;20045;-86
2022/07/05 11:59:48;;;;;;;0.10;0.10;;;22.00;83.50;;;;;;5017384;28;20033;-85
2022/07/05 12:02:14;;;;;;;0.13;0.13;;;22.20;82.50;;;;;;5017125;28;20059;-86
2022/07/05 12:04:46;;;;;;;0.63;0.63;;;22.20;81.70;;;;;;5016848;28;20037;-86
2022/07/05 12:07:12;;;;;;;0.00;0.00;;;22.30;81.50;;;;;;5014795;28;20382;-86
2022/07/05 12:12:44;;;;;;;1.27;0.75;;;22.50;81.70;;;;;;5000083;28;20084;-86
2022/07/05 12:15:11;;;;;;;0.40;0.32;;;22.40;80.90;;;;;;5018256;28;20394;-83
2022/07/05 12:17:38;;;;;;;0.20;0.20;;;22.40;81.40;;;;;;5000741;28;20450;-83
2022/07/05 12:20:11;;;;;;;0.10;0.10;;;22.40;81.30;;;;;;5015790;28;20099;-83
2022/07/05 12:22:39;;;;;;;0.00;0.00;;;22.70;81.90;;;;;;5014238;28;20164;-83
2022/07/05 12:25:07;;;;;;;0.20;0.20;;;22.80;80.90;;;;;;5013751;28;20038;-83
2022/07/05 12:27:37;;;;;;;0.00;0.00;;;22.90;80.80;;;;;;5018357;28;20558;-83
2022/07/05 12:30:04;;;;;;;0.20;0.20;;;22.80;79.50;;;;;;5032813;28;20057;-86
2022/07/05 12:32:30;;;;;;;0.25;0.25;;;22.80;79.50;;;;;;5053425;28;20056;-86
2022/07/05 12:34:57;;;;;;;0.10;0.10;;;23.10;79.80;;;;;;5053262;28;20040;-86
2022/07/05 12:37:23;;;;;;;0.00;0.00;;;23.50;77.70;;;;;;5052872;28;20041;-86
2022/07/05 12:40:00;;;;;;;0.32;0.20;;;23.60;76.60;;;;;;5053268;28;20395;-86
2022/07/05 12:42:34;;;;;;;0.55;0.55;;;23.50;76.50;;;;;;5021465;28;20041;-86
2022/07/05 12:45:16;;;;;;;0.10;0.10;;;23.60;77.80;;;;;;5052993;28;20037;-85
2022/07/05 12:47:53;;;;;;;0.00;0.00;;;23.50;77.60;;;;;;5052426;28;20076;-86
2022/07/05 12:50:20;;;;;;;0.00;0.00;;;23.60;79.20;;;;;;5052873;28;20037;-86
2022/07/05 12:52:59;;;;;;;0.10;0.10;;;23.60;77.60;;;;;;5034160;28;20044;-86
2022/07/05 12:58:19;;;;;;;0.52;0.32;;;24.60;82.20;;;;;;5037159;28;20063;-86
2022/07/05 13:00:46;;;;;;;0.00;0.00;;;23.50;79.00;;;;;;5021806;28;20041;-86
2022/07/05 13:03:12;;;;;;;0.05;0.05;;;23.40;79.20;;;;;;5052617;28;20123;-86